sensor_id;sensor_type;location;lat;lon;timestamp;P1;durP1;ratioP1;P2;durP2;ratioP2
74614;SDS011;63121;51.458;-0.110;2023-04-24T00:02:01;29.17;;;11.57;;
74614;SDS011;63121;51.458;-0.110;2023-04-24T00:04:26;27.63;;;11.95;;
74614;SDS011;63121;51.458;-0.110;2023-04-24T00:06:52;27.20;;;12.25;;
74614;SDS011;63121;51.458;-0.110;2023-04-24T00:09:21;28.65;;;12.75;;
74614;SDS011;63121;51.458;-0.110;2023-04-24T00:11:47;25.80;;;11.52;;
74614;SDS011;63121;51.458;-0.110;2023-04-24T00:14:13;27.92;;;11.93;;
74614;SDS011;63121;51.458;-0.110;2023-04-24T00:16:38;25.50;;;11.45;;
74614;SDS011;63121;51.458;-0.110;2023-04-24T00:19:03;25.90;;;11.13;;
74614;SDS011;63121;51.458;-0.110;2023-04-24T00:21:30;25.15;;;11.82;;
74614;SDS011;63121;51.458;-0.110;2023-04-24T00:23:57;28.55;;;11.43;;
74614;SDS011;63121;51.458;-0.110;2023-04-24T00:26:23;27.08;;;11.27;;
74614;SDS011;63121;51.458;-0.110;2023-04-24T00:28:48;28.08;;;12.20;;
74614;SDS011;63121;51.458;-0.110;2023-04-24T00:31:14;24.42;;;11.45;;
74614;SDS011;63121;51.458;-0.110;2023-04-24T00:33:39;28.63;;;11.10;;
74614;SDS011;63121;51.458;-0.110;2023-04-24T00:36:05;27.00;;;11.35;;
74614;SDS011;63121;51.458;-0.110;2023-04-24T00:38:31;26.65;;;11.07;;
74614;SDS011;63121;51.458;-0.110;2023-04-24T00:40:56;27.77;;;11.57;;
74614;SDS011;63121;51.458;-0.110;2023-04-24T00:43:21;24.55;;;10.55;;
74614;SDS011;63121;51.458;-0.110;2023-04-24T00:45:47;27.92;;;11.65;;
74614;SDS011;63121;51.458;-0.110;2023-04-24T00:48:12;24.10;;;11.50;;
74614;SDS011;63121;51.458;-0.110;2023-04-24T00:50:38;28.48;;;12.30;;
74614;SDS011;63121;51.458;-0.110;2023-04-24T00:53:04;21.77;;;10.68;;
74614;SDS011;63121;51.458;-0.110;2023-04-24T00:55:29;29.15;;;11.27;;
74614;SDS011;63121;51.458;-0.110;2023-04-24T00:57:56;26.67;;;11.98;;
74614;SDS011;63121;51.458;-0.110;2023-04-24T01:00:22;25.70;;;10.43;;
74614;SDS011;63121;51.458;-0.110;2023-04-24T01:02:47;26.08;;;10.02;;
74614;SDS011;63121;51.458;-0.110;2023-04-24T01:05:14;24.42;;;11.90;;
74614;SDS011;63121;51.458;-0.110;2023-04-24T01:10:09;24.45;;;10.15;;
74614;SDS011;63121;51.458;-0.110;2023-04-24T01:12:35;24.35;;;10.63;;
74614;SDS011;63121;51.458;-0.110;2023-04-24T01:15:00;24.60;;;10.98;;
74614;SDS011;63121;51.458;-0.110;2023-04-24T01:17:26;23.50;;;10.25;;
74614;SDS011;63121;51.458;-0.110;2023-04-24T01:19:51;24.75;;;10.20;;
74614;SDS011;63121;51.458;-0.110;2023-04-24T01:24:45;21.33;;;9.80;;
74614;SDS011;63121;51.458;-0.110;2023-04-24T01:27:11;24.88;;;11.18;;
74614;SDS011;63121;51.458;-0.110;2023-04-24T01:29:37;24.63;;;10.50;;
74614;SDS011;63121;51.458;-0.110;2023-04-24T01:32:03;25.02;;;11.07;;
74614;SDS011;63121;51.458;-0.110;2023-04-24T01:34:29;23.95;;;10.55;;
74614;SDS011;63121;51.458;-0.110;2023-04-24T01:36:55;21.58;;;9.82;;
74614;SDS011;63121;51.458;-0.110;2023-04-24T01:39:21;26.10;;;9.48;;
74614;SDS011;63121;51.458;-0.110;2023-04-24T01:41:51;26.67;;;11.35;;
74614;SDS011;63121;51.458;-0.110;2023-04-24T01:44:17;24.58;;;10.50;;
74614;SDS011;63121;51.458;-0.110;2023-04-24T01:46:43;23.13;;;11.05;;
74614;SDS011;63121;51.458;-0.110;2023-04-24T01:49:09;22.42;;;10.13;;
74614;SDS011;63121;51.458;-0.110;2023-04-24T01:51:34;21.50;;;10.20;;
74614;SDS011;63121;51.458;-0.110;2023-04-24T01:54:00;23.57;;;11.57;;
74614;SDS011;63121;51.458;-0.110;2023-04-24T01:56:25;23.83;;;10.90;;
74614;SDS011;63121;51.458;-0.110;2023-04-24T01:58:58;25.52;;;10.75;;
74614;SDS011;63121;51.458;-0.110;2023-04-24T02:01:24;23.08;;;10.35;;
74614;SDS011;63121;51.458;-0.110;2023-04-24T02:03:50;28.23;;;11.38;;
74614;SDS011;63121;51.458;-0.110;2023-04-24T02:06:15;26.75;;;10.70;;
74614;SDS011;63121;51.458;-0.110;2023-04-24T02:08:41;27.52;;;11.68;;
74614;SDS011;63121;51.458;-0.110;2023-04-24T02:11:08;23.65;;;10.15;;
74614;SDS011;63121;51.458;-0.110;2023-04-24T02:13:34;23.38;;;9.52;;
74614;SDS011;63121;51.458;-0.110;2023-04-24T02:15:59;21.75;;;9.40;;
74614;SDS011;63121;51.458;-0.110;2023-04-24T02:18:25;21.92;;;9.85;;
74614;SDS011;63121;51.458;-0.110;2023-04-24T02:20:50;26.02;;;11.30;;
74614;SDS011;63121;51.458;-0.110;2023-04-24T02:23:15;23.63;;;9.63;;
74614;SDS011;63121;51.458;-0.110;2023-04-24T02:25:41;24.50;;;10.30;;
74614;SDS011;63121;51.458;-0.110;2023-04-24T02:28:06;22.43;;;10.63;;
74614;SDS011;63121;51.458;-0.110;2023-04-24T02:30:31;24.45;;;10.68;;
74614;SDS011;63121;51.458;-0.110;2023-04-24T02:32:57;25.47;;;10.10;;
74614;SDS011;63121;51.458;-0.110;2023-04-24T02:35:22;23.15;;;9.95;;
74614;SDS011;63121;51.458;-0.110;2023-04-24T02:37:47;23.53;;;10.50;;
74614;SDS011;63121;51.458;-0.110;2023-04-24T02:40:13;26.60;;;10.67;;
74614;SDS011;63121;51.458;-0.110;2023-04-24T02:42:38;26.87;;;11.33;;
74614;SDS011;63121;51.458;-0.110;2023-04-24T02:45:04;25.77;;;10.73;;
74614;SDS011;63121;51.458;-0.110;2023-04-24T02:47:30;26.13;;;10.55;;
74614;SDS011;63121;51.458;-0.110;2023-04-24T02:49:55;25.25;;;11.18;;
74614;SDS011;63121;51.458;-0.110;2023-04-24T02:52:20;26.63;;;11.17;;
74614;SDS011;63121;51.458;-0.110;2023-04-24T02:54:46;23.27;;;10.30;;
74614;SDS011;63121;51.458;-0.110;2023-04-24T02:57:11;23.27;;;10.30;;
74614;SDS011;63121;51.458;-0.110;2023-04-24T02:59:36;22.98;;;9.93;;
74614;SDS011;63121;51.458;-0.110;2023-04-24T03:02:02;21.87;;;10.00;;
74614;SDS011;63121;51.458;-0.110;2023-04-24T03:04:27;23.60;;;9.93;;
74614;SDS011;63121;51.458;-0.110;2023-04-24T03:06:52;23.17;;;10.00;;
74614;SDS011;63121;51.458;-0.110;2023-04-24T03:11:45;20.35;;;8.98;;
74614;SDS011;63121;51.458;-0.110;2023-04-24T03:14:10;19.57;;;9.00;;
74614;SDS011;63121;51.458;-0.110;2023-04-24T03:16:36;21.47;;;9.97;;
74614;SDS011;63121;51.458;-0.110;2023-04-24T03:19:02;23.77;;;10.02;;
74614;SDS011;63121;51.458;-0.110;2023-04-24T03:21:27;19.92;;;8.40;;
74614;SDS011;63121;51.458;-0.110;2023-04-24T03:23:52;27.08;;;10.15;;
74614;SDS011;63121;51.458;-0.110;2023-04-24T03:26:18;19.63;;;9.40;;
74614;SDS011;63121;51.458;-0.110;2023-04-24T03:28:43;22.53;;;8.47;;
74614;SDS011;63121;51.458;-0.110;2023-04-24T03:31:08;21.60;;;9.20;;
74614;SDS011;63121;51.458;-0.110;2023-04-24T03:33:34;21.50;;;9.90;;
74614;SDS011;63121;51.458;-0.110;2023-04-24T03:36:00;22.75;;;9.40;;
74614;SDS011;63121;51.458;-0.110;2023-04-24T03:38:25;19.53;;;7.87;;
74614;SDS011;63121;51.458;-0.110;2023-04-24T03:40:51;19.73;;;8.90;;
74614;SDS011;63121;51.458;-0.110;2023-04-24T03:43:16;22.73;;;10.10;;
74614;SDS011;63121;51.458;-0.110;2023-04-24T03:45:41;19.13;;;8.32;;
74614;SDS011;63121;51.458;-0.110;2023-04-24T03:48:07;18.55;;;8.23;;
74614;SDS011;63121;51.458;-0.110;2023-04-24T03:50:32;16.85;;;7.30;;
74614;SDS011;63121;51.458;-0.110;2023-04-24T03:52:58;20.42;;;9.38;;
74614;SDS011;63121;51.458;-0.110;2023-04-24T03:55:23;21.00;;;8.67;;
74614;SDS011;63121;51.458;-0.110;2023-04-24T03:57:48;20.60;;;8.70;;
74614;SDS011;63121;51.458;-0.110;2023-04-24T04:00:14;21.83;;;8.65;;
74614;SDS011;63121;51.458;-0.110;2023-04-24T04:02:40;19.63;;;8.52;;
74614;SDS011;63121;51.458;-0.110;2023-04-24T04:05:05;18.58;;;8.10;;
74614;SDS011;63121;51.458;-0.110;2023-04-24T04:07:31;20.88;;;8.02;;
74614;SDS011;63121;51.458;-0.110;2023-04-24T04:09:56;20.10;;;8.98;;
74614;SDS011;63121;51.458;-0.110;2023-04-24T04:12:21;21.87;;;8.73;;
74614;SDS011;63121;51.458;-0.110;2023-04-24T04:14:47;21.40;;;9.13;;
74614;SDS011;63121;51.458;-0.110;2023-04-24T04:17:12;19.90;;;8.80;;
74614;SDS011;63121;51.458;-0.110;2023-04-24T04:19:37;21.35;;;9.18;;
74614;SDS011;63121;51.458;-0.110;2023-04-24T04:22:03;19.87;;;8.67;;
74614;SDS011;63121;51.458;-0.110;2023-04-24T04:24:28;22.85;;;8.82;;
74614;SDS011;63121;51.458;-0.110;2023-04-24T04:26:54;24.15;;;9.95;;
74614;SDS011;63121;51.458;-0.110;2023-04-24T04:29:21;24.88;;;10.88;;
74614;SDS011;63121;51.458;-0.110;2023-04-24T04:31:47;25.27;;;11.25;;
74614;SDS011;63121;51.458;-0.110;2023-04-24T04:34:13;23.35;;;9.35;;
74614;SDS011;63121;51.458;-0.110;2023-04-24T04:36:39;24.38;;;9.65;;
74614;SDS011;63121;51.458;-0.110;2023-04-24T04:39:05;25.38;;;10.85;;
74614;SDS011;63121;51.458;-0.110;2023-04-24T04:41:31;26.13;;;10.07;;
74614;SDS011;63121;51.458;-0.110;2023-04-24T04:43:57;21.65;;;9.40;;
74614;SDS011;63121;51.458;-0.110;2023-04-24T04:46:23;18.42;;;8.48;;
74614;SDS011;63121;51.458;-0.110;2023-04-24T04:48:50;21.85;;;9.77;;
74614;SDS011;63121;51.458;-0.110;2023-04-24T04:51:16;24.75;;;9.32;;
74614;SDS011;63121;51.458;-0.110;2023-04-24T04:53:41;21.17;;;8.83;;
74614;SDS011;63121;51.458;-0.110;2023-04-24T04:56:07;21.93;;;9.37;;
74614;SDS011;63121;51.458;-0.110;2023-04-24T04:58:32;21.20;;;9.23;;
74614;SDS011;63121;51.458;-0.110;2023-04-24T05:00:58;26.33;;;10.55;;
74614;SDS011;63121;51.458;-0.110;2023-04-24T05:03:24;23.35;;;10.02;;
74614;SDS011;63121;51.458;-0.110;2023-04-24T05:05:49;21.23;;;9.23;;
74614;SDS011;63121;51.458;-0.110;2023-04-24T05:08:15;21.25;;;9.05;;
74614;SDS011;63121;51.458;-0.110;2023-04-24T05:10:40;22.13;;;10.10;;
74614;SDS011;63121;51.458;-0.110;2023-04-24T05:13:05;22.33;;;8.10;;
74614;SDS011;63121;51.458;-0.110;2023-04-24T05:15:31;22.13;;;10.05;;
74614;SDS011;63121;51.458;-0.110;2023-04-24T05:17:56;21.65;;;9.02;;
74614;SDS011;63121;51.458;-0.110;2023-04-24T05:20:22;21.83;;;9.10;;
74614;SDS011;63121;51.458;-0.110;2023-04-24T05:22:47;22.90;;;9.27;;
74614;SDS011;63121;51.458;-0.110;2023-04-24T05:25:12;20.83;;;8.83;;
74614;SDS011;63121;51.458;-0.110;2023-04-24T05:27:38;21.63;;;8.53;;
74614;SDS011;63121;51.458;-0.110;2023-04-24T05:30:04;21.35;;;9.23;;
74614;SDS011;63121;51.458;-0.110;2023-04-24T05:32:30;19.42;;;8.18;;
74614;SDS011;63121;51.458;-0.110;2023-04-24T05:34:55;20.77;;;8.33;;
74614;SDS011;63121;51.458;-0.110;2023-04-24T05:37:20;21.30;;;9.10;;
74614;SDS011;63121;51.458;-0.110;2023-04-24T05:39:46;18.95;;;8.23;;
74614;SDS011;63121;51.458;-0.110;2023-04-24T05:42:11;19.27;;;8.37;;
74614;SDS011;63121;51.458;-0.110;2023-04-24T05:44:36;20.23;;;8.57;;
74614;SDS011;63121;51.458;-0.110;2023-04-24T05:47:02;16.80;;;7.13;;
74614;SDS011;63121;51.458;-0.110;2023-04-24T05:49:27;20.55;;;7.90;;
74614;SDS011;63121;51.458;-0.110;2023-04-24T05:51:52;22.33;;;7.38;;
74614;SDS011;63121;51.458;-0.110;2023-04-24T05:54:18;19.93;;;8.17;;
74614;SDS011;63121;51.458;-0.110;2023-04-24T05:56:43;17.77;;;7.13;;
74614;SDS011;63121;51.458;-0.110;2023-04-24T05:59:09;16.08;;;6.93;;
74614;SDS011;63121;51.458;-0.110;2023-04-24T06:01:34;18.00;;;6.50;;
74614;SDS011;63121;51.458;-0.110;2023-04-24T06:04:01;16.05;;;6.78;;
74614;SDS011;63121;51.458;-0.110;2023-04-24T06:06:27;12.30;;;4.72;;
74614;SDS011;63121;51.458;-0.110;2023-04-24T06:08:53;12.38;;;5.10;;
74614;SDS011;63121;51.458;-0.110;2023-04-24T06:11:19;11.10;;;3.90;;
74614;SDS011;63121;51.458;-0.110;2023-04-24T06:13:44;11.23;;;4.30;;
74614;SDS011;63121;51.458;-0.110;2023-04-24T06:16:10;12.43;;;3.35;;
74614;SDS011;63121;51.458;-0.110;2023-04-24T06:18:36;12.15;;;4.10;;
74614;SDS011;63121;51.458;-0.110;2023-04-24T06:21:01;12.55;;;4.75;;
74614;SDS011;63121;51.458;-0.110;2023-04-24T06:23:27;14.68;;;4.22;;
74614;SDS011;63121;51.458;-0.110;2023-04-24T06:25:52;13.07;;;3.77;;
74614;SDS011;63121;51.458;-0.110;2023-04-24T06:28:17;10.75;;;3.65;;
74614;SDS011;63121;51.458;-0.110;2023-04-24T06:30:43;10.57;;;3.60;;
74614;SDS011;63121;51.458;-0.110;2023-04-24T06:33:08;9.18;;;2.63;;
74614;SDS011;63121;51.458;-0.110;2023-04-24T06:35:34;10.40;;;3.08;;
74614;SDS011;63121;51.458;-0.110;2023-04-24T06:38:01;8.88;;;2.78;;
74614;SDS011;63121;51.458;-0.110;2023-04-24T06:40:26;10.60;;;2.78;;
74614;SDS011;63121;51.458;-0.110;2023-04-24T06:42:52;10.57;;;2.70;;
74614;SDS011;63121;51.458;-0.110;2023-04-24T06:45:17;8.45;;;2.47;;
74614;SDS011;63121;51.458;-0.110;2023-04-24T06:47:43;7.50;;;2.30;;
74614;SDS011;63121;51.458;-0.110;2023-04-24T06:50:09;8.05;;;2.20;;
74614;SDS011;63121;51.458;-0.110;2023-04-24T06:52:35;7.00;;;1.98;;
74614;SDS011;63121;51.458;-0.110;2023-04-24T06:55:01;9.40;;;2.10;;
74614;SDS011;63121;51.458;-0.110;2023-04-24T06:59:52;10.13;;;1.93;;
74614;SDS011;63121;51.458;-0.110;2023-04-24T07:02:18;7.30;;;1.90;;
74614;SDS011;63121;51.458;-0.110;2023-04-24T07:04:43;7.63;;;2.00;;
74614;SDS011;63121;51.458;-0.110;2023-04-24T07:07:08;9.17;;;2.00;;
74614;SDS011;63121;51.458;-0.110;2023-04-24T07:09:37;9.07;;;2.25;;
74614;SDS011;63121;51.458;-0.110;2023-04-24T07:12:06;8.57;;;2.15;;
74614;SDS011;63121;51.458;-0.110;2023-04-24T07:14:32;8.55;;;2.33;;
74614;SDS011;63121;51.458;-0.110;2023-04-24T07:16:57;8.27;;;2.03;;
74614;SDS011;63121;51.458;-0.110;2023-04-24T07:19:23;7.05;;;2.25;;
74614;SDS011;63121;51.458;-0.110;2023-04-24T07:21:48;10.70;;;2.90;;
74614;SDS011;63121;51.458;-0.110;2023-04-24T07:24:13;9.48;;;2.50;;
74614;SDS011;63121;51.458;-0.110;2023-04-24T07:26:39;9.97;;;2.37;;
74614;SDS011;63121;51.458;-0.110;2023-04-24T07:29:05;10.88;;;2.88;;
74614;SDS011;63121;51.458;-0.110;2023-04-24T07:31:30;7.28;;;2.00;;
74614;SDS011;63121;51.458;-0.110;2023-04-24T07:33:56;7.15;;;2.25;;
74614;SDS011;63121;51.458;-0.110;2023-04-24T07:36:23;10.65;;;2.15;;
74614;SDS011;63121;51.458;-0.110;2023-04-24T07:38:49;7.78;;;1.98;;
74614;SDS011;63121;51.458;-0.110;2023-04-24T07:41:14;7.53;;;2.05;;
74614;SDS011;63121;51.458;-0.110;2023-04-24T07:43:40;6.97;;;2.03;;
74614;SDS011;63121;51.458;-0.110;2023-04-24T07:46:07;6.05;;;2.15;;
74614;SDS011;63121;51.458;-0.110;2023-04-24T07:48:33;6.85;;;1.70;;
74614;SDS011;63121;51.458;-0.110;2023-04-24T07:50:58;6.47;;;1.80;;
74614;SDS011;63121;51.458;-0.110;2023-04-24T07:53:24;5.72;;;1.70;;
74614;SDS011;63121;51.458;-0.110;2023-04-24T07:55:49;5.93;;;1.95;;
74614;SDS011;63121;51.458;-0.110;2023-04-24T07:58:14;5.13;;;1.88;;
74614;SDS011;63121;51.458;-0.110;2023-04-24T08:00:40;5.60;;;1.83;;
74614;SDS011;63121;51.458;-0.110;2023-04-24T08:03:05;5.97;;;1.90;;
74614;SDS011;63121;51.458;-0.110;2023-04-24T08:05:31;8.18;;;1.85;;
74614;SDS011;63121;51.458;-0.110;2023-04-24T08:07:56;5.40;;;1.70;;
74614;SDS011;63121;51.458;-0.110;2023-04-24T08:10:22;5.82;;;1.80;;
74614;SDS011;63121;51.458;-0.110;2023-04-24T08:12:47;10.05;;;1.98;;
74614;SDS011;63121;51.458;-0.110;2023-04-24T08:15:13;6.35;;;1.90;;
74614;SDS011;63121;51.458;-0.110;2023-04-24T08:17:38;9.18;;;2.10;;
74614;SDS011;63121;51.458;-0.110;2023-04-24T08:20:04;7.20;;;1.83;;
74614;SDS011;63121;51.458;-0.110;2023-04-24T08:22:30;6.95;;;1.92;;
74614;SDS011;63121;51.458;-0.110;2023-04-24T08:24:56;10.70;;;2.50;;
74614;SDS011;63121;51.458;-0.110;2023-04-24T08:27:22;8.50;;;1.90;;
74614;SDS011;63121;51.458;-0.110;2023-04-24T08:29:52;6.68;;;2.10;;
74614;SDS011;63121;51.458;-0.110;2023-04-24T08:32:19;10.68;;;2.58;;
74614;SDS011;63121;51.458;-0.110;2023-04-24T08:34:44;8.88;;;2.40;;
74614;SDS011;63121;51.458;-0.110;2023-04-24T08:37:10;7.07;;;1.95;;
74614;SDS011;63121;51.458;-0.110;2023-04-24T08:39:36;8.23;;;2.05;;
74614;SDS011;63121;51.458;-0.110;2023-04-24T08:42:01;6.03;;;2.10;;
74614;SDS011;63121;51.458;-0.110;2023-04-24T08:44:31;7.95;;;2.47;;
74614;SDS011;63121;51.458;-0.110;2023-04-24T08:46:57;11.85;;;2.55;;
74614;SDS011;63121;51.458;-0.110;2023-04-24T08:49:23;8.40;;;2.45;;
74614;SDS011;63121;51.458;-0.110;2023-04-24T08:51:50;8.30;;;2.47;;
74614;SDS011;63121;51.458;-0.110;2023-04-24T08:54:18;7.68;;;2.17;;
74614;SDS011;63121;51.458;-0.110;2023-04-24T08:56:44;7.25;;;1.83;;
74614;SDS011;63121;51.458;-0.110;2023-04-24T08:59:12;7.18;;;1.90;;
74614;SDS011;63121;51.458;-0.110;2023-04-24T09:04:04;6.13;;;1.80;;
74614;SDS011;63121;51.458;-0.110;2023-04-24T09:06:32;9.00;;;2.22;;
74614;SDS011;63121;51.458;-0.110;2023-04-24T09:11:25;7.82;;;2.20;;
74614;SDS011;63121;51.458;-0.110;2023-04-24T09:13:52;11.48;;;2.88;;
74614;SDS011;63121;51.458;-0.110;2023-04-24T09:16:19;10.63;;;2.65;;
74614;SDS011;63121;51.458;-0.110;2023-04-24T09:21:10;8.13;;;2.30;;
74614;SDS011;63121;51.458;-0.110;2023-04-24T09:23:36;10.15;;;2.22;;
74614;SDS011;63121;51.458;-0.110;2023-04-24T09:26:02;9.38;;;2.08;;
74614;SDS011;63121;51.458;-0.110;2023-04-24T09:28:32;9.52;;;2.38;;
74614;SDS011;63121;51.458;-0.110;2023-04-24T09:33:34;9.48;;;2.40;;
74614;SDS011;63121;51.458;-0.110;2023-04-24T09:36:00;9.10;;;2.33;;
74614;SDS011;63121;51.458;-0.110;2023-04-24T09:38:35;7.93;;;2.33;;
74614;SDS011;63121;51.458;-0.110;2023-04-24T09:41:06;8.50;;;2.90;;
74614;SDS011;63121;51.458;-0.110;2023-04-24T09:43:32;10.20;;;2.50;;
74614;SDS011;63121;51.458;-0.110;2023-04-24T09:45:59;9.68;;;2.72;;
74614;SDS011;63121;51.458;-0.110;2023-04-24T09:48:33;6.38;;;2.17;;
74614;SDS011;63121;51.458;-0.110;2023-04-24T09:51:00;5.00;;;1.90;;
74614;SDS011;63121;51.458;-0.110;2023-04-24T09:53:28;7.22;;;2.30;;
74614;SDS011;63121;51.458;-0.110;2023-04-24T09:55:55;5.95;;;2.13;;
74614;SDS011;63121;51.458;-0.110;2023-04-24T09:58:24;8.55;;;2.30;;
74614;SDS011;63121;51.458;-0.110;2023-04-24T10:00:52;8.95;;;2.20;;
74614;SDS011;63121;51.458;-0.110;2023-04-24T10:03:18;6.20;;;2.08;;
74614;SDS011;63121;51.458;-0.110;2023-04-24T10:05:44;9.95;;;2.10;;
74614;SDS011;63121;51.458;-0.110;2023-04-24T10:10:46;9.45;;;2.50;;
74614;SDS011;63121;51.458;-0.110;2023-04-24T10:13:12;8.75;;;2.40;;
74614;SDS011;63121;51.458;-0.110;2023-04-24T10:15:40;11.20;;;2.80;;
74614;SDS011;63121;51.458;-0.110;2023-04-24T10:18:06;8.07;;;2.03;;
74614;SDS011;63121;51.458;-0.110;2023-04-24T10:20:34;7.55;;;2.40;;
74614;SDS011;63121;51.458;-0.110;2023-04-24T10:23:01;6.85;;;2.05;;
74614;SDS011;63121;51.458;-0.110;2023-04-24T10:25:28;10.05;;;2.55;;
74614;SDS011;63121;51.458;-0.110;2023-04-24T10:27:55;8.75;;;2.30;;
74614;SDS011;63121;51.458;-0.110;2023-04-24T10:30:24;7.80;;;2.30;;
74614;SDS011;63121;51.458;-0.110;2023-04-24T10:32:50;9.50;;;2.35;;
74614;SDS011;63121;51.458;-0.110;2023-04-24T10:35:15;8.27;;;2.57;;
74614;SDS011;63121;51.458;-0.110;2023-04-24T10:38:18;10.20;;;2.67;;
74614;SDS011;63121;51.458;-0.110;2023-04-24T10:40:40;10.43;;;2.80;;
74614;SDS011;63121;51.458;-0.110;2023-04-24T10:43:07;11.25;;;2.80;;
74614;SDS011;63121;51.458;-0.110;2023-04-24T10:45:36;10.00;;;3.38;;
74614;SDS011;63121;51.458;-0.110;2023-04-24T10:48:03;8.77;;;2.65;;
74614;SDS011;63121;51.458;-0.110;2023-04-24T10:50:44;10.35;;;2.50;;
74614;SDS011;63121;51.458;-0.110;2023-04-24T10:53:17;11.30;;;3.10;;
74614;SDS011;63121;51.458;-0.110;2023-04-24T10:58:11;10.02;;;2.75;;
74614;SDS011;63121;51.458;-0.110;2023-04-24T11:00:37;10.18;;;2.67;;
74614;SDS011;63121;51.458;-0.110;2023-04-24T11:03:05;11.05;;;2.38;;
74614;SDS011;63121;51.458;-0.110;2023-04-24T11:08:26;9.75;;;2.58;;
74614;SDS011;63121;51.458;-0.110;2023-04-24T11:10:55;12.85;;;3.17;;
74614;SDS011;63121;51.458;-0.110;2023-04-24T11:13:22;9.70;;;2.40;;
74614;SDS011;63121;51.458;-0.110;2023-04-24T11:18:38;8.68;;;2.78;;
74614;SDS011;63121;51.458;-0.110;2023-04-24T11:21:16;8.48;;;2.40;;
74614;SDS011;63121;51.458;-0.110;2023-04-24T11:23:42;7.45;;;2.53;;
74614;SDS011;63121;51.458;-0.110;2023-04-24T11:26:17;12.07;;;2.70;;
74614;SDS011;63121;51.458;-0.110;2023-04-24T11:28:46;8.13;;;2.85;;
74614;SDS011;63121;51.458;-0.110;2023-04-24T11:34:13;8.80;;;2.50;;
74614;SDS011;63121;51.458;-0.110;2023-04-24T11:36:43;9.52;;;2.70;;
74614;SDS011;63121;51.458;-0.110;2023-04-24T11:39:10;9.13;;;2.85;;
74614;SDS011;63121;51.458;-0.110;2023-04-24T11:41:36;9.85;;;3.05;;
74614;SDS011;63121;51.458;-0.110;2023-04-24T11:44:02;8.10;;;2.78;;
74614;SDS011;63121;51.458;-0.110;2023-04-24T11:46:30;8.10;;;2.83;;
74614;SDS011;63121;51.458;-0.110;2023-04-24T11:48:56;9.45;;;2.85;;
74614;SDS011;63121;51.458;-0.110;2023-04-24T11:51:23;8.82;;;2.60;;
74614;SDS011;63121;51.458;-0.110;2023-04-24T11:53:50;8.80;;;2.88;;
74614;SDS011;63121;51.458;-0.110;2023-04-24T11:56:19;9.48;;;3.58;;
74614;SDS011;63121;51.458;-0.110;2023-04-24T11:58:46;7.85;;;2.65;;
74614;SDS011;63121;51.458;-0.110;2023-04-24T12:01:12;10.30;;;3.40;;
74614;SDS011;63121;51.458;-0.110;2023-04-24T12:03:38;10.43;;;3.10;;
74614;SDS011;63121;51.458;-0.110;2023-04-24T12:06:04;10.02;;;3.03;;
74614;SDS011;63121;51.458;-0.110;2023-04-24T12:08:34;7.30;;;2.70;;
74614;SDS011;63121;51.458;-0.110;2023-04-24T12:11:04;10.02;;;2.85;;
74614;SDS011;63121;51.458;-0.110;2023-04-24T12:13:32;10.88;;;3.08;;
74614;SDS011;63121;51.458;-0.110;2023-04-24T12:15:58;8.77;;;2.97;;
74614;SDS011;63121;51.458;-0.110;2023-04-24T12:18:23;8.60;;;2.55;;
74614;SDS011;63121;51.458;-0.110;2023-04-24T12:20:49;8.10;;;2.63;;
74614;SDS011;63121;51.458;-0.110;2023-04-24T12:23:15;7.57;;;2.85;;
74614;SDS011;63121;51.458;-0.110;2023-04-24T12:25:41;7.43;;;2.65;;
74614;SDS011;63121;51.458;-0.110;2023-04-24T12:30:33;7.05;;;2.67;;
74614;SDS011;63121;51.458;-0.110;2023-04-24T12:33:00;9.77;;;3.00;;
74614;SDS011;63121;51.458;-0.110;2023-04-24T12:35:28;9.93;;;3.00;;
74614;SDS011;63121;51.458;-0.110;2023-04-24T12:37:54;7.85;;;2.70;;
74614;SDS011;63121;51.458;-0.110;2023-04-24T12:40:20;8.52;;;3.10;;
74614;SDS011;63121;51.458;-0.110;2023-04-24T12:42:51;8.77;;;3.22;;
74614;SDS011;63121;51.458;-0.110;2023-04-24T12:45:17;7.47;;;2.55;;
74614;SDS011;63121;51.458;-0.110;2023-04-24T12:47:44;9.38;;;3.05;;
74614;SDS011;63121;51.458;-0.110;2023-04-24T12:50:12;7.55;;;2.55;;
74614;SDS011;63121;51.458;-0.110;2023-04-24T12:52:39;8.15;;;2.88;;
74614;SDS011;63121;51.458;-0.110;2023-04-24T12:55:05;7.40;;;2.60;;
74614;SDS011;63121;51.458;-0.110;2023-04-24T12:57:35;9.43;;;2.70;;
74614;SDS011;63121;51.458;-0.110;2023-04-24T13:00:02;7.50;;;2.60;;
74614;SDS011;63121;51.458;-0.110;2023-04-24T13:02:29;7.32;;;2.63;;
74614;SDS011;63121;51.458;-0.110;2023-04-24T13:04:56;8.40;;;2.50;;
74614;SDS011;63121;51.458;-0.110;2023-04-24T13:07:21;8.10;;;2.72;;
74614;SDS011;63121;51.458;-0.110;2023-04-24T13:09:48;7.57;;;2.83;;
74614;SDS011;63121;51.458;-0.110;2023-04-24T13:12:14;7.10;;;2.50;;
74614;SDS011;63121;51.458;-0.110;2023-04-24T13:14:40;8.63;;;2.80;;
74614;SDS011;63121;51.458;-0.110;2023-04-24T13:17:06;8.13;;;2.40;;
74614;SDS011;63121;51.458;-0.110;2023-04-24T13:19:39;7.97;;;2.58;;
74614;SDS011;63121;51.458;-0.110;2023-04-24T13:22:06;8.32;;;2.72;;
74614;SDS011;63121;51.458;-0.110;2023-04-24T13:24:33;8.30;;;2.47;;
74614;SDS011;63121;51.458;-0.110;2023-04-24T13:26:59;7.82;;;2.58;;
74614;SDS011;63121;51.458;-0.110;2023-04-24T13:29:25;8.00;;;2.60;;
74614;SDS011;63121;51.458;-0.110;2023-04-24T13:31:52;8.82;;;2.50;;
74614;SDS011;63121;51.458;-0.110;2023-04-24T13:34:25;7.55;;;2.40;;
74614;SDS011;63121;51.458;-0.110;2023-04-24T13:36:54;6.93;;;2.30;;
74614;SDS011;63121;51.458;-0.110;2023-04-24T13:39:21;7.90;;;2.85;;
74614;SDS011;63121;51.458;-0.110;2023-04-24T13:41:47;8.73;;;3.17;;
74614;SDS011;63121;51.458;-0.110;2023-04-24T13:44:13;7.32;;;2.60;;
74614;SDS011;63121;51.458;-0.110;2023-04-24T13:46:40;9.15;;;2.70;;
74614;SDS011;63121;51.458;-0.110;2023-04-24T13:49:06;9.50;;;2.65;;
74614;SDS011;63121;51.458;-0.110;2023-04-24T13:51:31;7.95;;;2.50;;
74614;SDS011;63121;51.458;-0.110;2023-04-24T13:53:57;8.55;;;2.85;;
74614;SDS011;63121;51.458;-0.110;2023-04-24T13:56:22;6.30;;;2.28;;
74614;SDS011;63121;51.458;-0.110;2023-04-24T13:58:48;9.05;;;2.70;;
74614;SDS011;63121;51.458;-0.110;2023-04-24T14:01:14;11.38;;;2.83;;
74614;SDS011;63121;51.458;-0.110;2023-04-24T14:06:06;8.60;;;2.47;;
74614;SDS011;63121;51.458;-0.110;2023-04-24T14:08:31;8.13;;;2.25;;
74614;SDS011;63121;51.458;-0.110;2023-04-24T14:10:57;8.20;;;2.40;;
74614;SDS011;63121;51.458;-0.110;2023-04-24T14:13:22;7.13;;;2.65;;
74614;SDS011;63121;51.458;-0.110;2023-04-24T14:15:48;5.32;;;1.88;;
74614;SDS011;63121;51.458;-0.110;2023-04-24T14:18:13;7.38;;;2.30;;
74614;SDS011;63121;51.458;-0.110;2023-04-24T14:20:39;7.70;;;2.10;;
74614;SDS011;63121;51.458;-0.110;2023-04-24T14:23:05;7.80;;;2.25;;
74614;SDS011;63121;51.458;-0.110;2023-04-24T14:25:30;5.47;;;2.10;;
74614;SDS011;63121;51.458;-0.110;2023-04-24T14:27:55;6.15;;;2.15;;
74614;SDS011;63121;51.458;-0.110;2023-04-24T14:30:21;6.20;;;2.40;;
74614;SDS011;63121;51.458;-0.110;2023-04-24T14:32:46;6.85;;;2.00;;
74614;SDS011;63121;51.458;-0.110;2023-04-24T14:35:12;5.85;;;1.73;;
74614;SDS011;63121;51.458;-0.110;2023-04-24T14:37:38;6.97;;;2.00;;
74614;SDS011;63121;51.458;-0.110;2023-04-24T14:40:06;4.70;;;1.73;;
74614;SDS011;63121;51.458;-0.110;2023-04-24T14:42:33;5.78;;;2.15;;
74614;SDS011;63121;51.458;-0.110;2023-04-24T14:44:58;6.47;;;2.00;;
74614;SDS011;63121;51.458;-0.110;2023-04-24T14:47:24;5.03;;;1.88;;
74614;SDS011;63121;51.458;-0.110;2023-04-24T14:49:49;8.15;;;2.00;;
74614;SDS011;63121;51.458;-0.110;2023-04-24T14:52:15;5.40;;;2.08;;
74614;SDS011;63121;51.458;-0.110;2023-04-24T14:54:41;6.30;;;2.13;;
74614;SDS011;63121;51.458;-0.110;2023-04-24T14:57:07;6.15;;;2.25;;